createdAt,value
2023-05-14T00:02:16.405Z,97.4
2023-05-14T00:22:16.323Z,97.5
2023-05-14T00:42:16.340Z,97.6
2023-05-14T01:02:16.324Z,97.6
2023-05-14T01:22:16.272Z,97.8
2023-05-14T01:42:16.276Z,97.9
2023-05-14T02:02:16.242Z,98
2023-05-14T02:42:16.199Z,98.2
2023-05-14T03:02:16.192Z,98.3
2023-05-14T03:42:16.142Z,98.5
2023-05-14T04:22:16.109Z,98.6
2023-05-14T04:42:16.286Z,98.7
2023-05-14T05:02:15.882Z,98.5
2023-05-14T05:22:16.067Z,98
2023-05-14T05:42:16.058Z,97.2
2023-05-14T06:02:16.032Z,95.9
2023-05-14T06:22:16.066Z,92.8
2023-05-14T06:42:15.980Z,89.6
2023-05-14T07:22:15.739Z,68.7
2023-05-14T07:42:24.973Z,56.9
2023-05-14T08:02:16.056Z,46.8
2023-05-14T08:22:15.835Z,48.2
2023-05-14T08:42:15.817Z,46
2023-05-14T09:02:15.860Z,45.8
2023-05-14T09:42:15.726Z,45.5
2023-05-14T10:02:15.896Z,47.1
2023-05-14T10:22:15.668Z,37.6
2023-05-14T10:42:15.658Z,41.1
2023-05-14T11:02:15.579Z,37.6
2023-05-14T11:22:15.591Z,42.1
2023-05-14T11:42:15.573Z,49.8
2023-05-14T12:02:15.587Z,49.7
2023-05-14T12:22:15.316Z,39.5
2023-05-14T13:02:17.347Z,40.6
2023-05-14T13:42:15.396Z,40.7
2023-05-14T14:02:15.540Z,41.5
2023-05-14T14:22:15.468Z,41.6
2023-05-14T14:42:15.109Z,45.9
2023-05-14T15:02:15.325Z,45.8
2023-05-14T15:22:15.204Z,35.8
2023-05-14T15:42:15.226Z,42
2023-05-14T16:02:15.371Z,37.6
2023-05-14T16:22:15.171Z,44.6
2023-05-14T16:42:15.143Z,48.3
2023-05-14T17:02:15.092Z,49.2
2023-05-14T17:22:15.061Z,50.2
2023-05-14T17:42:15.042Z,55.3
2023-05-14T18:02:15.017Z,53.2
2023-05-14T18:22:15.010Z,62.2
2023-05-14T18:42:14.770Z,66
2023-05-14T19:02:14.955Z,72.9
2023-05-14T20:22:14.626Z,70.5
2023-05-14T20:42:14.979Z,74.5
2023-05-14T21:02:14.871Z,80.7
2023-05-14T21:22:14.592Z,76
2023-05-14T21:42:14.752Z,81
2023-05-14T22:02:14.768Z,81.5
2023-05-14T22:22:14.651Z,82.6
2023-05-14T22:42:14.674Z,83.4
2023-05-14T23:22:14.647Z,86.6
2023-05-14T23:42:14.598Z,90.4
